createdAt,value
2023-03-17T00:01:18.748Z,2.60
2023-03-17T00:03:47.789Z,2.60
2023-03-17T00:06:21.317Z,2.58
2023-03-17T00:08:47.936Z,2.52
2023-03-17T00:11:17.583Z,2.50
2023-03-17T00:13:46.210Z,2.48
2023-03-17T00:16:27.164Z,2.40
2023-03-17T00:18:57.562Z,2.40
2023-03-17T00:21:31.337Z,2.32
2023-03-17T00:23:59.768Z,2.30
2023-03-17T00:26:28.536Z,2.30
2023-03-17T00:28:55.688Z,2.30
2023-03-17T00:31:27.712Z,2.20
2023-03-17T00:33:55.959Z,2.20
2023-03-17T00:36:25.969Z,2.20
2023-03-17T00:38:52.742Z,2.14
2023-03-17T00:41:20.648Z,2.20
2023-03-17T00:43:47.391Z,2.16
2023-03-17T00:46:21.735Z,2.12
2023-03-17T00:48:48.800Z,2.10
2023-03-17T00:51:16.544Z,2.10
2023-03-17T00:53:44.224Z,2.10
2023-03-17T00:56:19.113Z,2.10
2023-03-17T00:58:47.698Z,2.10
2023-03-17T01:01:16.082Z,2.10
2023-03-17T01:03:42.967Z,2.10
2023-03-17T01:06:13.797Z,2.06
2023-03-17T01:08:42.077Z,2.00
2023-03-17T01:11:18.605Z,2.00
2023-03-17T01:13:48.095Z,2.00
2023-03-17T01:16:15.684Z,1.94
2023-03-17T01:18:43.737Z,1.90
2023-03-17T01:21:10.524Z,1.90
2023-03-17T01:23:37.490Z,1.84
2023-03-17T01:26:04.813Z,1.80
2023-03-17T01:28:31.465Z,1.80
2023-03-17T01:30:58.748Z,1.78
2023-03-17T01:33:25.713Z,1.70
2023-03-17T01:35:52.554Z,1.70
2023-03-17T01:38:19.247Z,1.70
2023-03-17T01:40:52.204Z,1.70
2023-03-17T01:43:24.805Z,1.70
2023-03-17T01:46:22.025Z,1.66
2023-03-17T01:49:33.222Z,1.60
2023-03-17T01:52:07.622Z,1.60
2023-03-17T01:54:50.495Z,1.60
2023-03-17T01:57:28.663Z,1.60
2023-03-17T02:00:12.638Z,1.58
2023-03-17T02:02:46.955Z,1.58
2023-03-17T02:05:17.967Z,1.50
2023-03-17T02:07:45.140Z,1.50
2023-03-17T02:10:15.679Z,1.50
2023-03-17T02:12:47.936Z,1.50
2023-03-17T02:15:15.456Z,1.50
2023-03-17T02:17:42.521Z,1.50
2023-03-17T02:20:32.766Z,1.50
2023-03-17T02:23:01.118Z,1.50
2023-03-17T02:25:30.823Z,1.50
2023-03-17T02:28:06.599Z,1.50
2023-03-17T02:30:35.212Z,1.50
2023-03-17T02:33:03.615Z,1.40
2023-03-17T02:35:31.485Z,1.40
2023-03-17T02:37:58.256Z,1.40
2023-03-17T02:40:25.047Z,1.40
2023-03-17T02:42:51.963Z,1.38
2023-03-17T02:45:18.714Z,1.30
2023-03-17T02:47:45.974Z,1.30
2023-03-17T02:50:22.925Z,1.30
2023-03-17T02:52:50.736Z,1.30
2023-03-17T02:55:17.853Z,1.30
2023-03-17T02:57:44.682Z,1.30
2023-03-17T03:00:14.263Z,1.30
2023-03-17T03:02:41.412Z,1.30
2023-03-17T03:05:09.641Z,1.30
2023-03-17T03:07:36.675Z,1.24
2023-03-17T03:10:04.099Z,1.22
2023-03-17T03:12:30.750Z,1.20
2023-03-17T03:14:57.341Z,1.20
2023-03-17T03:17:24.189Z,1.20
2023-03-17T03:19:50.774Z,1.20
2023-03-17T03:22:17.367Z,1.20
2023-03-17T03:24:43.973Z,1.20
2023-03-17T03:27:10.947Z,1.22
2023-03-17T03:29:38.282Z,1.20
2023-03-17T03:32:05.578Z,1.20
2023-03-17T03:34:32.242Z,1.20
2023-03-17T03:36:58.823Z,1.20
2023-03-17T03:39:25.714Z,1.20
2023-03-17T03:41:52.300Z,1.20
2023-03-17T03:44:18.937Z,1.20
2023-03-17T03:46:45.823Z,1.18
2023-03-17T03:49:12.540Z,1.10
2023-03-17T03:51:39.092Z,1.10
2023-03-17T03:54:05.810Z,1.10
2023-03-17T03:56:32.968Z,1.10
2023-03-17T03:59:01.097Z,1.20
2023-03-17T04:01:28.324Z,1.20
2023-03-17T04:03:54.978Z,1.20
2023-03-17T04:06:21.699Z,1.20
2023-03-17T04:08:48.315Z,1.20
2023-03-17T04:11:15.467Z,1.20
2023-03-17T04:13:42.063Z,1.20
2023-03-17T04:16:09.141Z,1.20
2023-03-17T04:18:36.296Z,1.28
2023-03-17T04:21:03.093Z,1.30
2023-03-17T04:23:31.442Z,1.30
2023-03-17T04:25:58.484Z,1.30
2023-03-17T04:28:25.094Z,1.30
2023-03-17T04:30:51.811Z,1.30
2023-03-17T04:33:20.291Z,1.30
2023-03-17T04:35:47.218Z,1.30
2023-03-17T04:38:14.342Z,1.30
2023-03-17T04:40:41.593Z,1.32
2023-03-17T04:43:10.282Z,1.30
2023-03-17T04:45:37.455Z,1.30
2023-03-17T04:48:05.248Z,1.30
2023-03-17T04:50:33.391Z,1.30
2023-03-17T04:53:00.167Z,1.30
2023-03-17T04:55:27.629Z,1.30
2023-03-17T04:57:54.287Z,1.30
2023-03-17T05:00:21.376Z,1.30
2023-03-17T05:02:48.018Z,1.30
2023-03-17T05:05:14.601Z,1.30
2023-03-17T05:07:41.872Z,1.26
2023-03-17T05:10:09.877Z,1.28
2023-03-17T05:12:36.415Z,1.30
2023-03-17T05:15:05.271Z,1.30
2023-03-17T05:17:31.861Z,1.30
2023-03-17T05:19:58.433Z,1.30
2023-03-17T05:22:25.062Z,1.30
2023-03-17T05:24:51.633Z,1.30
2023-03-17T05:27:18.247Z,1.30
2023-03-17T05:29:44.874Z,1.30
2023-03-17T05:32:11.676Z,1.30
2023-03-17T05:34:38.277Z,1.40
2023-03-17T05:37:04.885Z,1.40
2023-03-17T05:39:32.880Z,1.44
2023-03-17T05:41:59.436Z,1.50
2023-03-17T05:44:26.237Z,1.60
2023-03-17T05:46:52.860Z,1.68
2023-03-17T05:49:20.326Z,1.72
2023-03-17T05:51:47.534Z,1.80
2023-03-17T05:54:14.140Z,1.90
2023-03-17T05:56:42.730Z,2.00
2023-03-17T05:59:10.683Z,2.10
2023-03-17T06:01:37.337Z,2.20
2023-03-17T06:04:04.552Z,2.30
2023-03-17T06:06:31.185Z,2.42
2023-03-17T06:08:58.131Z,2.58
2023-03-17T06:11:24.739Z,2.70
2023-03-17T06:13:52.104Z,2.80
2023-03-17T06:16:19.851Z,2.90
2023-03-17T06:18:46.544Z,3.04
2023-03-17T06:21:14.324Z,3.12
2023-03-17T06:23:41.040Z,3.24
2023-03-17T06:26:07.678Z,3.38
2023-03-17T06:28:34.418Z,3.44
2023-03-17T06:31:01.172Z,3.54
2023-03-17T06:33:28.348Z,3.60
2023-03-17T06:35:54.967Z,3.70
2023-03-17T06:38:21.886Z,3.80
2023-03-17T06:40:48.493Z,3.90
2023-03-17T06:43:15.117Z,3.96
2023-03-17T06:45:42.151Z,4.00
2023-03-17T06:48:09.356Z,4.10
2023-03-17T06:50:36.295Z,4.20
2023-03-17T06:53:03.671Z,4.26
2023-03-17T06:55:32.014Z,4.30
2023-03-17T06:57:59.095Z,4.42
2023-03-17T07:00:27.677Z,4.50
2023-03-17T07:02:54.336Z,4.60
2023-03-17T07:05:20.947Z,4.70
2023-03-17T07:07:47.806Z,4.80
2023-03-17T07:10:15.960Z,4.90
2023-03-17T07:12:42.977Z,5.00
2023-03-17T07:15:12.530Z,5.20
2023-03-17T07:17:39.204Z,5.24
2023-03-17T07:20:07.113Z,5.30
2023-03-17T07:22:33.777Z,5.42
2023-03-17T07:25:00.369Z,5.52
2023-03-17T07:27:27.258Z,5.60
2023-03-17T07:29:53.947Z,5.70
2023-03-17T07:32:20.700Z,5.80
2023-03-17T07:34:47.560Z,5.90
2023-03-17T07:37:14.629Z,6.00
2023-03-17T07:39:41.998Z,6.00
2023-03-17T07:42:14.851Z,6.00
2023-03-17T07:44:42.160Z,6.00
2023-03-17T07:47:11.433Z,6.06
2023-03-17T07:49:42.009Z,6.12
2023-03-17T07:52:11.219Z,6.20
2023-03-17T07:54:42.257Z,6.38
2023-03-17T07:57:09.600Z,6.40
2023-03-17T07:59:36.484Z,6.40
2023-03-17T08:02:03.857Z,6.46
2023-03-17T08:04:30.776Z,6.50
2023-03-17T08:06:57.668Z,6.50
2023-03-17T08:09:24.553Z,6.56
2023-03-17T08:11:51.612Z,6.60
2023-03-17T08:14:18.540Z,6.66
2023-03-17T08:16:45.276Z,6.70
2023-03-17T08:19:12.266Z,6.70
2023-03-17T08:21:38.916Z,6.70
2023-03-17T08:24:06.642Z,6.70
2023-03-17T08:26:34.145Z,6.78
2023-03-17T08:29:01.549Z,6.80
2023-03-17T08:31:28.579Z,6.80
2023-03-17T08:33:57.303Z,6.90
2023-03-17T08:36:24.700Z,6.90
2023-03-17T08:38:52.598Z,6.90
2023-03-17T08:41:24.663Z,6.92
2023-03-17T08:43:51.754Z,6.94
2023-03-17T08:46:30.516Z,7.00
2023-03-17T08:48:59.613Z,7.10
2023-03-17T08:51:31.259Z,7.10
2023-03-17T08:53:59.837Z,7.00
2023-03-17T08:56:27.550Z,7.10
2023-03-17T08:58:54.474Z,7.10
2023-03-17T09:01:23.071Z,7.10
2023-03-17T09:03:53.356Z,7.20
2023-03-17T09:06:20.203Z,7.28
2023-03-17T09:08:47.629Z,7.36
2023-03-17T09:11:18.319Z,7.50
2023-03-17T09:13:47.523Z,7.60
2023-03-17T09:16:16.284Z,7.66
2023-03-17T09:18:43.772Z,7.70
2023-03-17T09:21:13.122Z,7.80
2023-03-17T09:23:41.138Z,7.90
2023-03-17T09:26:09.023Z,8.08
2023-03-17T09:28:36.276Z,8.14
2023-03-17T09:31:06.342Z,8.30
2023-03-17T09:33:33.348Z,8.30
2023-03-17T09:36:00.626Z,8.40
2023-03-17T09:38:28.380Z,8.42
2023-03-17T09:41:12.167Z,8.56
2023-03-17T09:44:12.690Z,8.60
2023-03-17T09:47:10.296Z,8.80
2023-03-17T09:49:49.640Z,8.80
2023-03-17T09:52:23.081Z,8.90
2023-03-17T09:54:50.305Z,8.92
2023-03-17T09:57:26.375Z,9.00
2023-03-17T10:00:01.453Z,9.10
2023-03-17T10:02:32.657Z,9.28
2023-03-17T10:05:32.380Z,9.36
2023-03-17T10:08:28.880Z,9.48
2023-03-17T10:11:36.318Z,9.62
2023-03-17T10:14:23.749Z,9.68
2023-03-17T10:17:16.582Z,9.80
2023-03-17T10:19:56.720Z,9.80
2023-03-17T10:22:56.001Z,9.90
2023-03-17T10:25:44.926Z,9.96
2023-03-17T10:28:30.668Z,10.00
2023-03-17T10:31:32.890Z,10.10
2023-03-17T10:34:18.686Z,10.10
2023-03-17T10:36:55.294Z,10.10
2023-03-17T10:39:24.692Z,10.20
2023-03-17T10:42:07.685Z,10.30
2023-03-17T10:44:59.051Z,10.40
2023-03-17T10:47:38.264Z,10.50
2023-03-17T10:50:30.486Z,10.56
2023-03-17T10:53:08.337Z,10.60
2023-03-17T10:55:37.560Z,10.64
2023-03-17T10:58:07.765Z,10.70
2023-03-17T11:00:38.566Z,10.78
2023-03-17T11:03:18.433Z,10.80
2023-03-17T11:06:14.374Z,10.92
2023-03-17T11:08:46.748Z,11.10
2023-03-17T11:11:49.097Z,11.20
2023-03-17T11:14:19.398Z,11.30
2023-03-17T11:17:13.470Z,11.40
2023-03-17T11:20:15.450Z,11.42
2023-03-17T11:22:57.279Z,11.50
2023-03-17T11:25:27.180Z,11.56
2023-03-17T11:28:19.025Z,11.70
2023-03-17T11:31:06.543Z,11.80
2023-03-17T11:34:20.011Z,11.90
2023-03-17T11:37:11.711Z,12.00
2023-03-17T11:40:10.671Z,12.10
2023-03-17T11:43:01.002Z,12.20
2023-03-17T11:45:37.495Z,12.30
2023-03-17T11:48:22.653Z,12.36
2023-03-17T11:51:02.539Z,12.40
2023-03-17T11:54:05.083Z,12.50
2023-03-17T11:56:51.771Z,12.56
2023-03-17T11:59:39.374Z,12.54
2023-03-17T12:02:15.050Z,12.60
2023-03-17T12:05:13.377Z,12.60
2023-03-17T12:07:47.964Z,12.70
2023-03-17T12:10:41.542Z,12.78
2023-03-17T12:13:23.316Z,12.80
2023-03-17T12:16:05.472Z,12.80
2023-03-17T12:18:37.591Z,12.90
2023-03-17T12:21:43.138Z,12.94
2023-03-17T12:24:40.359Z,13.00
2023-03-17T12:27:15.884Z,13.10
2023-03-17T12:29:51.695Z,13.10
2023-03-17T12:32:26.200Z,13.30
2023-03-17T12:34:59.838Z,13.34
2023-03-17T12:37:30.001Z,13.46
2023-03-17T12:40:26.192Z,13.56
2023-03-17T12:43:22.909Z,13.70
2023-03-17T12:46:55.887Z,13.70
2023-03-17T12:49:30.460Z,13.90
2023-03-17T12:52:13.449Z,13.90
2023-03-17T12:54:47.914Z,14.00
2023-03-17T12:57:28.724Z,14.10
2023-03-17T13:00:29.707Z,14.16
2023-03-17T13:03:23.837Z,14.30
2023-03-17T13:06:02.154Z,14.30
2023-03-17T13:08:56.337Z,14.40
2023-03-17T13:11:47.470Z,14.40
2023-03-17T13:14:27.257Z,14.50
2023-03-17T13:17:25.603Z,14.50
2023-03-17T13:20:09.840Z,14.60
2023-03-17T13:23:21.210Z,14.60
2023-03-17T13:25:53.831Z,14.70
2023-03-17T13:28:41.440Z,14.72
2023-03-17T13:31:34.008Z,14.80
2023-03-17T13:34:15.385Z,14.80
2023-03-17T13:37:05.465Z,14.90
2023-03-17T13:40:25.235Z,14.90
2023-03-17T13:43:37.057Z,14.90
2023-03-17T13:46:38.950Z,14.88
2023-03-17T13:49:18.327Z,14.86
2023-03-17T13:52:11.544Z,14.90
2023-03-17T13:54:59.717Z,14.90
2023-03-17T13:57:29.593Z,15.00
2023-03-17T14:00:25.816Z,15.02
2023-03-17T14:03:13.117Z,15.00
2023-03-17T14:05:42.594Z,15.10
2023-03-17T14:08:29.783Z,15.10
2023-03-17T14:11:38.881Z,15.10
2023-03-17T14:14:37.910Z,15.10
2023-03-17T14:17:44.586Z,15.20
2023-03-17T14:20:17.064Z,15.16
2023-03-17T14:22:48.199Z,15.10
2023-03-17T14:25:26.336Z,15.00
2023-03-17T14:27:57.495Z,15.00
2023-03-17T14:30:29.683Z,14.90
2023-03-17T14:33:20.740Z,14.90
2023-03-17T14:35:52.044Z,14.90
2023-03-17T14:38:22.012Z,14.80
2023-03-17T14:40:59.097Z,14.86
2023-03-17T14:43:26.266Z,14.90
2023-03-17T14:45:59.798Z,14.90
2023-03-17T14:48:32.478Z,14.90
2023-03-17T14:51:25.397Z,14.90
2023-03-17T14:53:56.847Z,14.90
2023-03-17T14:56:31.969Z,14.90
2023-03-17T14:59:16.727Z,14.90
2023-03-17T15:01:48.476Z,14.88
2023-03-17T15:04:33.548Z,14.80
2023-03-17T15:07:06.662Z,14.80
2023-03-17T15:09:41.118Z,14.70
2023-03-17T15:12:24.714Z,14.68
2023-03-17T15:14:56.370Z,14.60
2023-03-17T15:17:31.084Z,14.60
2023-03-17T15:20:04.834Z,14.60
2023-03-17T15:22:34.182Z,14.58
2023-03-17T15:25:16.174Z,14.50
2023-03-17T15:27:45.298Z,14.50
2023-03-17T15:30:12.967Z,14.50
2023-03-17T15:32:40.825Z,14.50
2023-03-17T15:35:12.428Z,14.50
2023-03-17T15:37:39.667Z,14.40
2023-03-17T15:40:09.324Z,14.40
2023-03-17T15:42:39.536Z,14.30
2023-03-17T15:45:07.856Z,14.30
2023-03-17T15:47:39.710Z,14.20
2023-03-17T15:50:25.725Z,14.20
2023-03-17T15:52:58.654Z,14.10
2023-03-17T15:55:30.646Z,14.00
2023-03-17T15:57:58.684Z,14.00
2023-03-17T16:00:29.821Z,13.90
2023-03-17T16:03:04.266Z,13.88
2023-03-17T16:05:34.676Z,13.80
2023-03-17T16:08:02.262Z,13.72
2023-03-17T16:10:32.840Z,13.70
2023-03-17T16:12:59.852Z,13.60
2023-03-17T16:15:31.434Z,13.50
2023-03-17T16:18:02.471Z,13.50
2023-03-17T16:20:43.091Z,13.40
2023-03-17T16:23:21.858Z,13.40
2023-03-17T16:25:49.566Z,13.30
2023-03-17T16:28:31.139Z,13.20
2023-03-17T16:31:00.550Z,13.10
2023-03-17T16:33:37.006Z,13.10
2023-03-17T16:36:04.355Z,13.02
2023-03-17T16:38:33.997Z,13.00
2023-03-17T16:41:14.423Z,12.90
2023-03-17T16:43:45.110Z,12.90
2023-03-17T16:46:13.037Z,12.80
2023-03-17T16:48:39.680Z,12.70
2023-03-17T16:51:06.905Z,12.70
2023-03-17T16:53:33.529Z,12.52
2023-03-17T16:56:00.562Z,12.50
2023-03-17T16:58:32.877Z,12.40
2023-03-17T17:01:04.520Z,12.30
2023-03-17T17:03:31.486Z,12.20
2023-03-17T17:05:58.533Z,12.14
2023-03-17T17:08:25.274Z,12.08
2023-03-17T17:10:52.235Z,12.00
2023-03-17T17:13:18.912Z,11.90
2023-03-17T17:15:46.200Z,11.82
2023-03-17T17:18:24.679Z,11.80
2023-03-17T17:20:53.893Z,11.70
2023-03-17T17:23:26.683Z,11.70
2023-03-17T17:25:54.418Z,11.60
2023-03-17T17:28:24.404Z,11.60
2023-03-17T17:30:53.095Z,11.50
2023-03-17T17:33:21.302Z,11.50
2023-03-17T17:35:49.833Z,11.40
2023-03-17T17:38:28.326Z,11.40
2023-03-17T17:40:58.036Z,11.40
2023-03-17T17:43:25.460Z,11.32
2023-03-17T17:45:53.499Z,11.30
2023-03-17T17:48:22.609Z,11.30
2023-03-17T17:50:50.692Z,11.26
2023-03-17T17:53:18.047Z,11.20
2023-03-17T17:55:47.821Z,11.20
2023-03-17T17:58:25.312Z,11.20
2023-03-17T18:00:55.285Z,11.20
2023-03-17T18:03:25.167Z,11.18
2023-03-17T18:05:56.646Z,11.10
2023-03-17T18:08:25.511Z,11.10
2023-03-17T18:10:52.702Z,11.04
2023-03-17T18:13:19.360Z,11.00
2023-03-17T18:15:46.197Z,11.00
2023-03-17T18:18:12.818Z,11.00
2023-03-17T18:20:40.096Z,11.00
2023-03-17T18:23:08.029Z,10.90
2023-03-17T18:25:34.624Z,10.90
2023-03-17T18:28:01.847Z,10.90
2023-03-17T18:30:31.570Z,10.90
2023-03-17T18:33:06.401Z,10.88
2023-03-17T18:35:34.094Z,10.80
2023-03-17T18:38:01.611Z,10.80
2023-03-17T18:40:28.848Z,10.80
2023-03-17T18:42:55.927Z,10.70
2023-03-17T18:45:23.113Z,10.70
2023-03-17T18:47:49.823Z,10.70
2023-03-17T18:50:17.561Z,10.60
2023-03-17T18:52:45.752Z,10.60
2023-03-17T18:55:15.099Z,10.60
2023-03-17T18:57:44.638Z,10.56
2023-03-17T19:00:16.276Z,10.60
2023-03-17T19:02:43.131Z,10.50
2023-03-17T19:05:11.835Z,10.50
2023-03-17T19:07:40.486Z,10.50
2023-03-17T19:10:10.608Z,10.50
2023-03-17T19:12:38.229Z,10.46
2023-03-17T19:15:07.351Z,10.48
2023-03-17T19:17:35.118Z,10.40
2023-03-17T19:20:01.856Z,10.32
2023-03-17T19:22:28.473Z,10.30
2023-03-17T19:24:55.475Z,10.26
2023-03-17T19:27:22.268Z,10.20
2023-03-17T19:29:48.922Z,10.20
2023-03-17T19:32:16.637Z,10.10
2023-03-17T19:34:43.787Z,10.10
2023-03-17T19:37:11.037Z,10.00
2023-03-17T19:39:37.716Z,10.00
2023-03-17T19:42:04.400Z,9.96
2023-03-17T19:44:31.027Z,9.90
2023-03-17T19:46:57.865Z,9.86
2023-03-17T19:49:24.908Z,9.80
2023-03-17T19:51:52.390Z,9.80
2023-03-17T19:54:19.107Z,9.70
2023-03-17T19:56:48.305Z,9.62
2023-03-17T19:59:16.917Z,9.60
2023-03-17T20:01:43.540Z,9.52
2023-03-17T20:04:13.934Z,9.50
2023-03-17T20:06:40.705Z,9.40
2023-03-17T20:09:08.791Z,9.36
2023-03-17T20:11:35.645Z,9.30
2023-03-17T20:14:03.103Z,9.30
2023-03-17T20:16:33.479Z,9.20
2023-03-17T20:19:01.311Z,9.18
2023-03-17T20:21:28.560Z,9.10
2023-03-17T20:23:55.275Z,9.00
2023-03-17T20:26:21.954Z,9.00
2023-03-17T20:28:49.078Z,8.90
2023-03-17T20:31:16.021Z,8.90
2023-03-17T20:33:42.654Z,8.90
2023-03-17T20:36:10.189Z,8.80
2023-03-17T20:38:38.818Z,8.80
2023-03-17T20:41:12.823Z,8.70
2023-03-17T20:43:41.727Z,8.70
2023-03-17T20:46:15.588Z,8.60
2023-03-17T20:48:43.245Z,8.60
2023-03-17T20:51:16.456Z,8.50
2023-03-17T20:53:46.218Z,8.50
2023-03-17T20:56:19.754Z,8.50
2023-03-17T20:58:48.460Z,8.40
2023-03-17T21:01:20.449Z,8.40
2023-03-17T21:03:49.651Z,8.40
2023-03-17T21:06:18.288Z,8.36
2023-03-17T21:08:46.211Z,8.30
2023-03-17T21:11:20.792Z,8.30
2023-03-17T21:13:47.942Z,8.30
2023-03-17T21:16:27.707Z,8.20
2023-03-17T21:18:55.111Z,8.20
2023-03-17T21:21:23.011Z,8.10
2023-03-17T21:23:49.728Z,8.10
2023-03-17T21:26:16.552Z,8.10
2023-03-17T21:28:43.412Z,8.02
2023-03-17T21:31:12.420Z,8.00
2023-03-17T21:33:39.719Z,7.90
2023-03-17T21:36:07.559Z,7.90
2023-03-17T21:38:34.544Z,7.86
2023-03-17T21:41:30.733Z,7.80
2023-03-17T21:43:58.051Z,7.80
2023-03-17T21:46:25.598Z,7.72
2023-03-17T21:48:54.108Z,7.70
2023-03-17T21:51:20.794Z,7.68
2023-03-17T21:53:48.177Z,7.60
2023-03-17T21:56:14.867Z,7.50
2023-03-17T21:58:41.510Z,7.50
2023-03-17T22:01:10.055Z,7.40
2023-03-17T22:03:39.539Z,7.40
2023-03-17T22:06:07.125Z,7.30
2023-03-17T22:08:34.588Z,7.30
2023-03-17T22:11:08.408Z,7.20
2023-03-17T22:13:36.015Z,7.20
2023-03-17T22:16:04.500Z,7.10
2023-03-17T22:18:32.456Z,7.10
2023-03-17T22:20:59.890Z,7.00
2023-03-17T22:23:27.792Z,7.00
2023-03-17T22:25:56.479Z,6.90
2023-03-17T22:28:24.339Z,6.84
2023-03-17T22:30:51.507Z,6.80
2023-03-17T22:33:18.160Z,6.72
2023-03-17T22:35:44.851Z,6.70
2023-03-17T22:38:13.022Z,6.60
2023-03-17T22:40:39.650Z,6.60
2023-03-17T22:43:07.353Z,6.58
2023-03-17T22:45:34.193Z,6.50
2023-03-17T22:48:01.282Z,6.40
2023-03-17T22:50:28.377Z,6.40
2023-03-17T22:52:55.019Z,6.40
2023-03-17T22:55:21.696Z,6.30
2023-03-17T22:57:48.653Z,6.30
2023-03-17T23:00:17.569Z,6.24
2023-03-17T23:02:46.293Z,6.20
2023-03-17T23:05:13.651Z,6.20
2023-03-17T23:07:50.493Z,6.10
2023-03-17T23:10:25.224Z,6.10
2023-03-17T23:12:52.730Z,6.00
2023-03-17T23:15:21.056Z,6.00
2023-03-17T23:17:48.057Z,6.00
2023-03-17T23:20:15.790Z,5.98
2023-03-17T23:22:42.959Z,5.92
2023-03-17T23:25:10.390Z,5.90
2023-03-17T23:27:37.020Z,5.90
2023-03-17T23:30:05.739Z,5.90
2023-03-17T23:32:32.820Z,5.84
2023-03-17T23:34:59.906Z,5.80
2023-03-17T23:37:27.413Z,5.80
2023-03-17T23:39:54.980Z,5.80
2023-03-17T23:42:22.475Z,5.70
2023-03-17T23:44:49.210Z,5.70
2023-03-17T23:47:16.991Z,5.70
2023-03-17T23:49:43.919Z,5.60
2023-03-17T23:52:11.399Z,5.60
2023-03-17T23:54:38.938Z,5.50
2023-03-17T23:57:06.531Z,5.44
2023-03-17T23:59:35.448Z,5.40
